If you wish to contribute or participate in the discussions about articles you are invited to join SKYbrary as a registered user

 Actions

Saint-Étienne-Bouthéon Airport

From SKYbrary Wiki

LFMH
Airport
ICAO: LFMH – IATA: EBU
Summary
Name Saint-Étienne-Bouthéon Airport
Region Europe
Territory France FR.gif
Location , Rhone-Alpes
Serving St-Etienne
Elevation 403.86 m
1,325 ft
1,325 ft403.86 m
Type medium airport
Coordinates 45° 32' 25.99" N, 4° 17' 47.00" E
Runways
Designator Length Width Surface ROPS
18/36 2300 m7,545.932 ft
45 m147.638 ft
ASP yes/yes


METAR
Observation LFMH 182300Z AUTO 29004KT 9999 FEW016/// BKN074/// BKN110/// ///CB 19/18 Q1017
Station St-Etienne Boutheon
Date/Time 18 August 2019 23:00:00
Wind direction 290°
Wind speed 04 kts
Lowest cloud amount few clouds
Temperature 19°C
Dew point 18°C
Humidity 93%
QNH 1017 hPa
Weather condition n/a